Copiapo, Chile
Current Conditions -  °F | °C
As of 4:00 AM on Saturday 25 Oct 2014 (Local Time) from SCAT Reporting Station
NA  
Wind Chill: 57°   Ceiling: NA
Heat Index: 57°   Visibility: 6mi
Dew Point: 54°   Wind: 3mph
Humidity: 88%   Direction: 340°NNW
Pressure: 29.91"   Gusts: NA
Location:  27.36°S, 70.34°W
Report Text: SCAT 250800Z AUTO 34003KT 300V010 9999 // ///007 14/12 Q1013
Loading
Personal Weather Stations






























Interactive Weather Map
Tropical Storm Tracking
New forecast layout! Learn more

10-Day Weather Forecast

Advertisements
Track Severe Weather on mobile